sensor_id;sensor_type;location;lat;lon;timestamp;temperature;humidity
5304;DHT22;2674;49.722;10.892;2023-09-08T00:01:26;16.60;99.90
5304;DHT22;2674;49.722;10.892;2023-09-08T00:03:51;16.40;99.90
5304;DHT22;2674;49.722;10.892;2023-09-08T00:06:18;16.40;1.00
5304;DHT22;2674;49.722;10.892;2023-09-08T00:08:44;16.40;99.90
5304;DHT22;2674;49.722;10.892;2023-09-08T00:11:10;16.40;1.00
5304;DHT22;2674;49.722;10.892;2023-09-08T00:13:36;16.30;1.00
5304;DHT22;2674;49.722;10.892;2023-09-08T00:16:01;16.30;1.00
5304;DHT22;2674;49.722;10.892;2023-09-08T00:18:30;16.20;1.00
5304;DHT22;2674;49.722;10.892;2023-09-08T00:20:55;16.20;99.90
5304;DHT22;2674;49.722;10.892;2023-09-08T00:23:21;16.20;99.90
5304;DHT22;2674;49.722;10.892;2023-09-08T00:25:49;16.20;1.00
5304;DHT22;2674;49.722;10.892;2023-09-08T00:28:15;16.10;99.90
5304;DHT22;2674;49.722;10.892;2023-09-08T00:30:41;16.10;1.00
5304;DHT22;2674;49.722;10.892;2023-09-08T00:33:06;16.00;1.00
5304;DHT22;2674;49.722;10.892;2023-09-08T00:35:35;15.90;99.90
5304;DHT22;2674;49.722;10.892;2023-09-08T00:38:01;15.80;99.90
5304;DHT22;2674;49.722;10.892;2023-09-08T00:40:27;15.70;1.00
5304;DHT22;2674;49.722;10.892;2023-09-08T00:42:53;15.60;1.00
5304;DHT22;2674;49.722;10.892;2023-09-08T00:45:19;15.50;1.00
5304;DHT22;2674;49.722;10.892;2023-09-08T00:47:45;15.50;1.00
5304;DHT22;2674;49.722;10.892;2023-09-08T00:50:11;15.40;1.00
5304;DHT22;2674;49.722;10.892;2023-09-08T00:52:37;15.40;1.00
5304;DHT22;2674;49.722;10.892;2023-09-08T00:55:04;15.30;1.00
5304;DHT22;2674;49.722;10.892;2023-09-08T00:57:30;15.20;1.00
5304;DHT22;2674;49.722;10.892;2023-09-08T00:59:56;15.20;1.00
5304;DHT22;2674;49.722;10.892;2023-09-08T01:02:22;15.10;1.00
5304;DHT22;2674;49.722;10.892;2023-09-08T01:04:49;15.10;1.00
5304;DHT22;2674;49.722;10.892;2023-09-08T01:07:15;15.00;1.00
5304;DHT22;2674;49.722;10.892;2023-09-08T01:09:42;14.90;1.00
5304;DHT22;2674;49.722;10.892;2023-09-08T01:12:08;14.90;1.00
5304;DHT22;2674;49.722;10.892;2023-09-08T01:14:34;14.80;1.00
5304;DHT22;2674;49.722;10.892;2023-09-08T01:17:00;14.80;1.00
5304;DHT22;2674;49.722;10.892;2023-09-08T01:19:26;14.70;1.00
5304;DHT22;2674;49.722;10.892;2023-09-08T01:22:11;14.70;1.00
5304;DHT22;2674;49.722;10.892;2023-09-08T01:27:32;14.60;11.10
5304;DHT22;2674;49.722;10.892;2023-09-08T01:29:59;14.60;20.70
5304;DHT22;2674;49.722;10.892;2023-09-08T01:32:26;14.50;36.90
5304;DHT22;2674;49.722;10.892;2023-09-08T01:34:52;14.50;27.10
5304;DHT22;2674;49.722;10.892;2023-09-08T01:37:18;14.50;34.30
5304;DHT22;2674;49.722;10.892;2023-09-08T01:39:44;14.40;56.50
5304;DHT22;2674;49.722;10.892;2023-09-08T01:42:10;14.40;84.50
5304;DHT22;2674;49.722;10.892;2023-09-08T01:44:36;14.30;97.20
5304;DHT22;2674;49.722;10.892;2023-09-08T01:47:02;14.30;98.70
5304;DHT22;2674;49.722;10.892;2023-09-08T01:49:27;14.20;99.90
5304;DHT22;2674;49.722;10.892;2023-09-08T01:51:53;14.20;99.90
5304;DHT22;2674;49.722;10.892;2023-09-08T01:54:19;14.10;99.90
5304;DHT22;2674;49.722;10.892;2023-09-08T01:56:45;14.10;99.90
5304;DHT22;2674;49.722;10.892;2023-09-08T01:59:10;14.00;99.90
5304;DHT22;2674;49.722;10.892;2023-09-08T02:01:36;14.00;99.90
5304;DHT22;2674;49.722;10.892;2023-09-08T02:04:02;14.00;99.90
5304;DHT22;2674;49.722;10.892;2023-09-08T02:06:28;13.90;99.90
5304;DHT22;2674;49.722;10.892;2023-09-08T02:08:54;13.90;99.90
5304;DHT22;2674;49.722;10.892;2023-09-08T02:11:19;13.90;99.90
5304;DHT22;2674;49.722;10.892;2023-09-08T02:13:45;13.90;99.90
5304;DHT22;2674;49.722;10.892;2023-09-08T02:16:14;13.90;99.90
5304;DHT22;2674;49.722;10.892;2023-09-08T02:18:44;13.90;99.90
5304;DHT22;2674;49.722;10.892;2023-09-08T02:21:11;13.90;99.90
5304;DHT22;2674;49.722;10.892;2023-09-08T02:23:37;13.80;99.90
5304;DHT22;2674;49.722;10.892;2023-09-08T02:26:03;13.80;99.90
5304;DHT22;2674;49.722;10.892;2023-09-08T02:28:29;13.80;99.90
5304;DHT22;2674;49.722;10.892;2023-09-08T02:30:56;13.80;99.90
5304;DHT22;2674;49.722;10.892;2023-09-08T02:33:22;13.80;99.90
5304;DHT22;2674;49.722;10.892;2023-09-08T02:35:48;13.70;99.90
5304;DHT22;2674;49.722;10.892;2023-09-08T02:38:13;13.70;99.90
5304;DHT22;2674;49.722;10.892;2023-09-08T02:40:39;13.70;99.90
5304;DHT22;2674;49.722;10.892;2023-09-08T02:43:05;13.70;99.90
5304;DHT22;2674;49.722;10.892;2023-09-08T02:45:31;13.60;99.90
5304;DHT22;2674;49.722;10.892;2023-09-08T02:47:56;13.60;99.90
5304;DHT22;2674;49.722;10.892;2023-09-08T02:50:22;13.60;99.90
5304;DHT22;2674;49.722;10.892;2023-09-08T02:52:49;13.50;99.90
5304;DHT22;2674;49.722;10.892;2023-09-08T02:55:15;13.50;99.90
5304;DHT22;2674;49.722;10.892;2023-09-08T02:57:41;13.50;99.90
5304;DHT22;2674;49.722;10.892;2023-09-08T03:00:07;13.40;99.90
5304;DHT22;2674;49.722;10.892;2023-09-08T03:02:34;13.50;99.90
5304;DHT22;2674;49.722;10.892;2023-09-08T03:05:00;13.40;99.90
5304;DHT22;2674;49.722;10.892;2023-09-08T03:07:27;13.40;99.90
5304;DHT22;2674;49.722;10.892;2023-09-08T03:09:53;13.40;99.90
5304;DHT22;2674;49.722;10.892;2023-09-08T03:12:19;13.30;99.90
5304;DHT22;2674;49.722;10.892;2023-09-08T03:14:45;13.30;99.90
5304;DHT22;2674;49.722;10.892;2023-09-08T03:17:11;13.30;99.90
5304;DHT22;2674;49.722;10.892;2023-09-08T03:19:38;13.30;99.90
5304;DHT22;2674;49.722;10.892;2023-09-08T03:22:04;13.20;99.90
5304;DHT22;2674;49.722;10.892;2023-09-08T03:24:30;13.20;99.90
5304;DHT22;2674;49.722;10.892;2023-09-08T03:26:55;13.10;99.90
5304;DHT22;2674;49.722;10.892;2023-09-08T03:29:23;13.10;99.90
5304;DHT22;2674;49.722;10.892;2023-09-08T03:31:49;13.10;99.90
5304;DHT22;2674;49.722;10.892;2023-09-08T03:34:15;13.10;99.90
5304;DHT22;2674;49.722;10.892;2023-09-08T03:36:41;13.10;99.90
5304;DHT22;2674;49.722;10.892;2023-09-08T03:39:06;13.10;99.90
5304;DHT22;2674;49.722;10.892;2023-09-08T03:41:35;13.10;99.90
5304;DHT22;2674;49.722;10.892;2023-09-08T03:44:00;13.00;99.90
5304;DHT22;2674;49.722;10.892;2023-09-08T03:46:26;12.90;99.90
5304;DHT22;2674;49.722;10.892;2023-09-08T03:48:52;13.00;99.90
5304;DHT22;2674;49.722;10.892;2023-09-08T03:51:24;12.90;99.90
5304;DHT22;2674;49.722;10.892;2023-09-08T03:53:50;12.90;99.90
5304;DHT22;2674;49.722;10.892;2023-09-08T03:56:16;12.90;99.90
5304;DHT22;2674;49.722;10.892;2023-09-08T03:58:42;12.90;99.90
5304;DHT22;2674;49.722;10.892;2023-09-08T04:01:08;12.90;99.90
5304;DHT22;2674;49.722;10.892;2023-09-08T04:03:33;12.80;99.90
5304;DHT22;2674;49.722;10.892;2023-09-08T04:05:59;12.80;99.90
5304;DHT22;2674;49.722;10.892;2023-09-08T04:08:25;12.80;99.90
5304;DHT22;2674;49.722;10.892;2023-09-08T04:10:51;12.80;99.90
5304;DHT22;2674;49.722;10.892;2023-09-08T04:13:17;12.70;99.90
5304;DHT22;2674;49.722;10.892;2023-09-08T04:15:42;12.70;99.90
5304;DHT22;2674;49.722;10.892;2023-09-08T04:18:08;12.60;99.90
5304;DHT22;2674;49.722;10.892;2023-09-08T04:20:34;12.70;99.90
5304;DHT22;2674;49.722;10.892;2023-09-08T04:23:00;12.70;99.90
5304;DHT22;2674;49.722;10.892;2023-09-08T04:25:26;12.70;99.90
5304;DHT22;2674;49.722;10.892;2023-09-08T04:27:52;12.60;99.90
5304;DHT22;2674;49.722;10.892;2023-09-08T04:30:18;12.60;99.90
5304;DHT22;2674;49.722;10.892;2023-09-08T04:32:44;12.60;99.90
5304;DHT22;2674;49.722;10.892;2023-09-08T04:35:10;12.60;99.90
5304;DHT22;2674;49.722;10.892;2023-09-08T04:37:36;12.50;99.90
5304;DHT22;2674;49.722;10.892;2023-09-08T04:40:03;12.50;99.90
5304;DHT22;2674;49.722;10.892;2023-09-08T04:42:29;12.50;99.90
5304;DHT22;2674;49.722;10.892;2023-09-08T04:44:55;12.50;99.90
5304;DHT22;2674;49.722;10.892;2023-09-08T04:47:21;12.50;99.90
5304;DHT22;2674;49.722;10.892;2023-09-08T04:49:46;12.40;99.90
5304;DHT22;2674;49.722;10.892;2023-09-08T04:52:12;12.40;99.90
5304;DHT22;2674;49.722;10.892;2023-09-08T04:54:39;12.40;99.90
5304;DHT22;2674;49.722;10.892;2023-09-08T04:57:05;12.40;99.90
5304;DHT22;2674;49.722;10.892;2023-09-08T04:59:31;12.40;99.90
5304;DHT22;2674;49.722;10.892;2023-09-08T05:01:58;12.40;99.90
5304;DHT22;2674;49.722;10.892;2023-09-08T05:04:24;12.50;99.90
5304;DHT22;2674;49.722;10.892;2023-09-08T05:06:49;12.40;99.90
5304;DHT22;2674;49.722;10.892;2023-09-08T05:09:15;12.50;99.90
5304;DHT22;2674;49.722;10.892;2023-09-08T05:11:41;12.50;99.90
5304;DHT22;2674;49.722;10.892;2023-09-08T05:14:07;12.60;99.90
5304;DHT22;2674;49.722;10.892;2023-09-08T05:16:33;12.60;99.90
5304;DHT22;2674;49.722;10.892;2023-09-08T05:19:11;12.60;99.90
5304;DHT22;2674;49.722;10.892;2023-09-08T05:21:38;12.60;99.90
5304;DHT22;2674;49.722;10.892;2023-09-08T05:24:05;12.60;99.90
5304;DHT22;2674;49.722;10.892;2023-09-08T05:26:31;12.60;99.90
5304;DHT22;2674;49.722;10.892;2023-09-08T05:28:57;12.60;99.90
5304;DHT22;2674;49.722;10.892;2023-09-08T05:31:23;12.60;99.90
5304;DHT22;2674;49.722;10.892;2023-09-08T05:33:49;12.70;99.90
5304;DHT22;2674;49.722;10.892;2023-09-08T05:36:15;12.80;99.90
5304;DHT22;2674;49.722;10.892;2023-09-08T05:38:40;12.90;99.90
5304;DHT22;2674;49.722;10.892;2023-09-08T05:41:06;13.00;99.90
5304;DHT22;2674;49.722;10.892;2023-09-08T05:43:32;13.20;99.90
5304;DHT22;2674;49.722;10.892;2023-09-08T05:45:58;13.20;99.90
5304;DHT22;2674;49.722;10.892;2023-09-08T05:48:24;13.30;99.90
5304;DHT22;2674;49.722;10.892;2023-09-08T05:50:49;13.40;99.90
5304;DHT22;2674;49.722;10.892;2023-09-08T05:53:16;13.50;99.90
5304;DHT22;2674;49.722;10.892;2023-09-08T05:55:42;13.50;99.90
5304;DHT22;2674;49.722;10.892;2023-09-08T05:58:08;13.60;99.90
5304;DHT22;2674;49.722;10.892;2023-09-08T06:00:34;13.70;99.90
5304;DHT22;2674;49.722;10.892;2023-09-08T06:03:00;13.80;99.90
5304;DHT22;2674;49.722;10.892;2023-09-08T06:05:26;13.90;99.90
5304;DHT22;2674;49.722;10.892;2023-09-08T06:07:51;14.00;99.90
5304;DHT22;2674;49.722;10.892;2023-09-08T06:10:17;14.10;99.90
5304;DHT22;2674;49.722;10.892;2023-09-08T06:12:43;14.20;99.90
5304;DHT22;2674;49.722;10.892;2023-09-08T06:15:09;14.30;99.90
5304;DHT22;2674;49.722;10.892;2023-09-08T06:17:35;14.40;99.90
5304;DHT22;2674;49.722;10.892;2023-09-08T06:20:01;14.50;99.90
5304;DHT22;2674;49.722;10.892;2023-09-08T06:22:27;14.60;99.90
5304;DHT22;2674;49.722;10.892;2023-09-08T06:24:52;14.60;99.90
5304;DHT22;2674;49.722;10.892;2023-09-08T06:27:18;14.80;99.90
5304;DHT22;2674;49.722;10.892;2023-09-08T06:29:44;14.80;99.90
5304;DHT22;2674;49.722;10.892;2023-09-08T06:32:10;14.90;99.90
5304;DHT22;2674;49.722;10.892;2023-09-08T06:34:36;15.00;99.90
5304;DHT22;2674;49.722;10.892;2023-09-08T06:37:02;15.10;99.90
5304;DHT22;2674;49.722;10.892;2023-09-08T06:39:29;15.20;99.90
5304;DHT22;2674;49.722;10.892;2023-09-08T06:41:54;15.30;99.90
5304;DHT22;2674;49.722;10.892;2023-09-08T06:44:21;15.40;99.90
5304;DHT22;2674;49.722;10.892;2023-09-08T06:46:47;15.40;99.90
5304;DHT22;2674;49.722;10.892;2023-09-08T06:49:12;15.50;99.90
5304;DHT22;2674;49.722;10.892;2023-09-08T06:51:38;15.60;99.90
5304;DHT22;2674;49.722;10.892;2023-09-08T06:54:04;15.70;99.90
5304;DHT22;2674;49.722;10.892;2023-09-08T06:56:30;15.80;99.90
5304;DHT22;2674;49.722;10.892;2023-09-08T06:58:56;15.90;99.90
5304;DHT22;2674;49.722;10.892;2023-09-08T07:01:25;16.00;99.90
5304;DHT22;2674;49.722;10.892;2023-09-08T07:03:51;16.10;99.90
5304;DHT22;2674;49.722;10.892;2023-09-08T07:06:17;16.30;99.90
5304;DHT22;2674;49.722;10.892;2023-09-08T07:08:43;16.40;99.90
5304;DHT22;2674;49.722;10.892;2023-09-08T07:11:09;16.50;99.90
5304;DHT22;2674;49.722;10.892;2023-09-08T07:13:35;16.60;99.90
5304;DHT22;2674;49.722;10.892;2023-09-08T07:16:01;16.80;99.90
5304;DHT22;2674;49.722;10.892;2023-09-08T07:18:26;16.90;99.90
5304;DHT22;2674;49.722;10.892;2023-09-08T07:20:52;17.00;99.90
5304;DHT22;2674;49.722;10.892;2023-09-08T07:23:19;17.20;98.00
5304;DHT22;2674;49.722;10.892;2023-09-08T07:25:49;17.30;74.50
5304;DHT22;2674;49.722;10.892;2023-09-08T07:28:16;17.50;33.70
5304;DHT22;2674;49.722;10.892;2023-09-08T07:30:51;17.60;1.00
5304;DHT22;2674;49.722;10.892;2023-09-08T07:33:17;17.70;1.00
5304;DHT22;2674;49.722;10.892;2023-09-08T07:35:44;17.90;1.00
5304;DHT22;2674;49.722;10.892;2023-09-08T07:38:10;18.00;1.00
5304;DHT22;2674;49.722;10.892;2023-09-08T07:40:36;18.20;1.00
5304;DHT22;2674;49.722;10.892;2023-09-08T07:43:02;18.30;1.00
5304;DHT22;2674;49.722;10.892;2023-09-08T07:45:28;18.40;1.00
5304;DHT22;2674;49.722;10.892;2023-09-08T07:47:54;18.50;1.00
5304;DHT22;2674;49.722;10.892;2023-09-08T07:50:25;18.70;1.00
5304;DHT22;2674;49.722;10.892;2023-09-08T07:52:52;18.80;1.00
5304;DHT22;2674;49.722;10.892;2023-09-08T07:55:18;19.00;1.00
5304;DHT22;2674;49.722;10.892;2023-09-08T07:57:45;19.20;1.00
5304;DHT22;2674;49.722;10.892;2023-09-08T08:00:12;19.30;1.00
5304;DHT22;2674;49.722;10.892;2023-09-08T08:02:44;19.50;1.00
5304;DHT22;2674;49.722;10.892;2023-09-08T08:05:11;19.60;1.00
5304;DHT22;2674;49.722;10.892;2023-09-08T08:07:38;19.80;1.00
5304;DHT22;2674;49.722;10.892;2023-09-08T08:10:05;19.90;99.90
5304;DHT22;2674;49.722;10.892;2023-09-08T08:12:31;20.10;99.90
5304;DHT22;2674;49.722;10.892;2023-09-08T08:14:57;20.10;99.90
5304;DHT22;2674;49.722;10.892;2023-09-08T08:17:24;20.20;1.00
5304;DHT22;2674;49.722;10.892;2023-09-08T08:19:52;20.30;1.00
5304;DHT22;2674;49.722;10.892;2023-09-08T08:22:18;20.40;1.00
5304;DHT22;2674;49.722;10.892;2023-09-08T08:24:44;20.50;1.00
5304;DHT22;2674;49.722;10.892;2023-09-08T08:27:10;20.60;25.50
5304;DHT22;2674;49.722;10.892;2023-09-08T08:29:35;20.70;1.00
5304;DHT22;2674;49.722;10.892;2023-09-08T08:32:01;20.80;29.70
5304;DHT22;2674;49.722;10.892;2023-09-08T08:34:28;20.90;1.00
5304;DHT22;2674;49.722;10.892;2023-09-08T08:36:53;21.00;1.00
5304;DHT22;2674;49.722;10.892;2023-09-08T08:39:20;21.10;1.00
5304;DHT22;2674;49.722;10.892;2023-09-08T08:41:46;21.20;1.00
5304;DHT22;2674;49.722;10.892;2023-09-08T08:44:12;21.30;1.00
5304;DHT22;2674;49.722;10.892;2023-09-08T08:46:40;21.40;1.00
5304;DHT22;2674;49.722;10.892;2023-09-08T08:49:07;21.50;1.00
5304;DHT22;2674;49.722;10.892;2023-09-08T08:51:35;21.60;1.00
5304;DHT22;2674;49.722;10.892;2023-09-08T08:54:02;21.70;1.00
5304;DHT22;2674;49.722;10.892;2023-09-08T08:56:31;21.80;1.00
5304;DHT22;2674;49.722;10.892;2023-09-08T08:58:58;22.00;1.00
5304;DHT22;2674;49.722;10.892;2023-09-08T09:01:26;22.20;1.00
5304;DHT22;2674;49.722;10.892;2023-09-08T09:03:52;22.20;1.00
5304;DHT22;2674;49.722;10.892;2023-09-08T09:06:19;22.40;1.00
5304;DHT22;2674;49.722;10.892;2023-09-08T09:08:45;22.50;1.00
5304;DHT22;2674;49.722;10.892;2023-09-08T09:11:12;22.60;1.00
5304;DHT22;2674;49.722;10.892;2023-09-08T09:13:39;22.70;1.00
5304;DHT22;2674;49.722;10.892;2023-09-08T09:16:05;22.60;1.00
5304;DHT22;2674;49.722;10.892;2023-09-08T09:21:21;22.70;1.00
5304;DHT22;2674;49.722;10.892;2023-09-08T09:23:47;22.80;1.00
5304;DHT22;2674;49.722;10.892;2023-09-08T09:26:23;22.80;1.00
5304;DHT22;2674;49.722;10.892;2023-09-08T09:28:50;23.00;1.00
5304;DHT22;2674;49.722;10.892;2023-09-08T09:31:18;23.20;1.00
5304;DHT22;2674;49.722;10.892;2023-09-08T09:33:45;23.30;1.00
5304;DHT22;2674;49.722;10.892;2023-09-08T09:36:22;23.40;1.00
5304;DHT22;2674;49.722;10.892;2023-09-08T09:38:48;23.50;1.00
5304;DHT22;2674;49.722;10.892;2023-09-08T09:41:15;23.60;1.00
5304;DHT22;2674;49.722;10.892;2023-09-08T09:43:42;23.70;1.00
5304;DHT22;2674;49.722;10.892;2023-09-08T09:46:09;23.80;1.00
5304;DHT22;2674;49.722;10.892;2023-09-08T09:48:36;23.80;1.00
5304;DHT22;2674;49.722;10.892;2023-09-08T09:51:19;24.00;1.00
5304;DHT22;2674;49.722;10.892;2023-09-08T09:53:45;24.10;1.00
5304;DHT22;2674;49.722;10.892;2023-09-08T09:56:13;24.20;1.00
5304;DHT22;2674;49.722;10.892;2023-09-08T09:58:40;24.30;1.00
5304;DHT22;2674;49.722;10.892;2023-09-08T10:01:08;24.50;1.00
5304;DHT22;2674;49.722;10.892;2023-09-08T10:03:39;24.60;99.90
5304;DHT22;2674;49.722;10.892;2023-09-08T10:06:05;24.70;99.90
5304;DHT22;2674;49.722;10.892;2023-09-08T10:08:34;24.80;99.90
5304;DHT22;2674;49.722;10.892;2023-09-08T10:11:07;24.90;99.90
5304;DHT22;2674;49.722;10.892;2023-09-08T10:13:42;25.10;99.90
5304;DHT22;2674;49.722;10.892;2023-09-08T10:16:13;25.10;99.90
5304;DHT22;2674;49.722;10.892;2023-09-08T10:18:45;25.10;99.90
5304;DHT22;2674;49.722;10.892;2023-09-08T10:21:12;25.10;99.90
5304;DHT22;2674;49.722;10.892;2023-09-08T10:23:44;25.10;99.90
5304;DHT22;2674;49.722;10.892;2023-09-08T10:26:15;25.20;99.90
5304;DHT22;2674;49.722;10.892;2023-09-08T10:28:42;25.20;99.90
5304;DHT22;2674;49.722;10.892;2023-09-08T10:31:09;25.40;99.90
5304;DHT22;2674;49.722;10.892;2023-09-08T10:33:36;25.40;99.90
5304;DHT22;2674;49.722;10.892;2023-09-08T10:36:03;25.50;99.90
5304;DHT22;2674;49.722;10.892;2023-09-08T10:38:34;25.60;99.90
5304;DHT22;2674;49.722;10.892;2023-09-08T10:44:07;25.70;99.90
5304;DHT22;2674;49.722;10.892;2023-09-08T10:46:34;25.80;99.90
5304;DHT22;2674;49.722;10.892;2023-09-08T10:49:02;26.00;99.90
5304;DHT22;2674;49.722;10.892;2023-09-08T10:51:29;26.00;99.90
5304;DHT22;2674;49.722;10.892;2023-09-08T10:53:55;26.10;99.90
5304;DHT22;2674;49.722;10.892;2023-09-08T10:56:21;26.10;99.90
5304;DHT22;2674;49.722;10.892;2023-09-08T10:58:51;26.20;99.90
5304;DHT22;2674;49.722;10.892;2023-09-08T11:01:21;26.20;99.90
5304;DHT22;2674;49.722;10.892;2023-09-08T11:03:53;26.00;99.90
5304;DHT22;2674;49.722;10.892;2023-09-08T11:06:20;26.10;99.90
5304;DHT22;2674;49.722;10.892;2023-09-08T11:08:49;26.10;99.90
5304;DHT22;2674;49.722;10.892;2023-09-08T11:11:18;26.10;99.90
5304;DHT22;2674;49.722;10.892;2023-09-08T11:13:45;26.20;99.90
5304;DHT22;2674;49.722;10.892;2023-09-08T11:16:13;26.30;99.90
5304;DHT22;2674;49.722;10.892;2023-09-08T11:18:39;26.40;99.90
5304;DHT22;2674;49.722;10.892;2023-09-08T11:21:08;26.20;99.90
5304;DHT22;2674;49.722;10.892;2023-09-08T11:23:34;26.40;99.90
5304;DHT22;2674;49.722;10.892;2023-09-08T11:26:00;26.50;99.90
5304;DHT22;2674;49.722;10.892;2023-09-08T11:28:27;26.70;99.90
5304;DHT22;2674;49.722;10.892;2023-09-08T11:30:54;26.70;99.90
5304;DHT22;2674;49.722;10.892;2023-09-08T11:33:22;26.80;99.90
5304;DHT22;2674;49.722;10.892;2023-09-08T11:35:51;26.70;99.90
5304;DHT22;2674;49.722;10.892;2023-09-08T11:38:19;26.70;99.90
5304;DHT22;2674;49.722;10.892;2023-09-08T11:40:45;26.80;99.90
5304;DHT22;2674;49.722;10.892;2023-09-08T11:43:12;27.00;99.90
5304;DHT22;2674;49.722;10.892;2023-09-08T11:45:37;27.20;99.90
5304;DHT22;2674;49.722;10.892;2023-09-08T11:48:04;27.20;99.90
5304;DHT22;2674;49.722;10.892;2023-09-08T11:50:30;27.30;99.90
5304;DHT22;2674;49.722;10.892;2023-09-08T11:52:57;27.30;99.90
5304;DHT22;2674;49.722;10.892;2023-09-08T11:55:28;27.30;99.90
5304;DHT22;2674;49.722;10.892;2023-09-08T11:57:55;27.50;99.90
5304;DHT22;2674;49.722;10.892;2023-09-08T12:00:26;27.60;99.90
5304;DHT22;2674;49.722;10.892;2023-09-08T12:02:53;27.60;99.90
5304;DHT22;2674;49.722;10.892;2023-09-08T12:05:28;27.50;99.90
5304;DHT22;2674;49.722;10.892;2023-09-08T12:07:57;27.60;99.90
5304;DHT22;2674;49.722;10.892;2023-09-08T12:10:24;27.60;99.90
5304;DHT22;2674;49.722;10.892;2023-09-08T12:12:55;27.50;99.90
5304;DHT22;2674;49.722;10.892;2023-09-08T12:15:36;27.50;99.90
5304;DHT22;2674;49.722;10.892;2023-09-08T12:18:07;27.70;99.90
5304;DHT22;2674;49.722;10.892;2023-09-08T12:20:35;27.80;99.90
5304;DHT22;2674;49.722;10.892;2023-09-08T12:23:04;27.80;99.90
5304;DHT22;2674;49.722;10.892;2023-09-08T12:25:30;27.80;99.90
5304;DHT22;2674;49.722;10.892;2023-09-08T12:27:57;27.90;99.90
5304;DHT22;2674;49.722;10.892;2023-09-08T12:30:24;27.90;99.90
5304;DHT22;2674;49.722;10.892;2023-09-08T12:32:58;27.80;99.90
5304;DHT22;2674;49.722;10.892;2023-09-08T12:35:25;27.80;99.90
5304;DHT22;2674;49.722;10.892;2023-09-08T12:38:01;27.80;99.90
5304;DHT22;2674;49.722;10.892;2023-09-08T12:40:29;28.00;99.90
5304;DHT22;2674;49.722;10.892;2023-09-08T12:42:56;28.20;99.90
5304;DHT22;2674;49.722;10.892;2023-09-08T12:45:25;28.40;99.90
5304;DHT22;2674;49.722;10.892;2023-09-08T12:47:51;28.40;99.90
5304;DHT22;2674;49.722;10.892;2023-09-08T12:50:17;28.40;99.90
5304;DHT22;2674;49.722;10.892;2023-09-08T12:52:44;28.40;99.90
5304;DHT22;2674;49.722;10.892;2023-09-08T12:55:10;28.30;99.90
5304;DHT22;2674;49.722;10.892;2023-09-08T12:57:36;28.40;99.90
5304;DHT22;2674;49.722;10.892;2023-09-08T13:00:03;28.50;99.90
5304;DHT22;2674;49.722;10.892;2023-09-08T13:02:29;28.70;99.90
5304;DHT22;2674;49.722;10.892;2023-09-08T13:04:55;28.70;99.90
5304;DHT22;2674;49.722;10.892;2023-09-08T13:07:22;28.60;99.90
5304;DHT22;2674;49.722;10.892;2023-09-08T13:09:49;28.70;99.90
5304;DHT22;2674;49.722;10.892;2023-09-08T13:12:16;28.70;99.90
5304;DHT22;2674;49.722;10.892;2023-09-08T13:14:42;28.70;99.90
5304;DHT22;2674;49.722;10.892;2023-09-08T13:17:10;28.70;99.90
5304;DHT22;2674;49.722;10.892;2023-09-08T13:19:36;29.00;99.90
5304;DHT22;2674;49.722;10.892;2023-09-08T13:22:04;29.20;99.90
5304;DHT22;2674;49.722;10.892;2023-09-08T13:24:30;29.50;99.90
5304;DHT22;2674;49.722;10.892;2023-09-08T13:26:56;29.70;99.90
5304;DHT22;2674;49.722;10.892;2023-09-08T13:29:22;29.60;99.90
5304;DHT22;2674;49.722;10.892;2023-09-08T13:31:48;29.50;99.90
5304;DHT22;2674;49.722;10.892;2023-09-08T13:34:14;29.60;99.90
5304;DHT22;2674;49.722;10.892;2023-09-08T13:36:40;29.60;99.90
5304;DHT22;2674;49.722;10.892;2023-09-08T13:39:06;29.50;99.90
5304;DHT22;2674;49.722;10.892;2023-09-08T13:44:17;29.30;99.90
5304;DHT22;2674;49.722;10.892;2023-09-08T13:46:45;29.40;99.90
5304;DHT22;2674;49.722;10.892;2023-09-08T13:49:11;29.40;99.90
5304;DHT22;2674;49.722;10.892;2023-09-08T13:51:37;29.40;99.90
5304;DHT22;2674;49.722;10.892;2023-09-08T13:54:03;29.40;99.90
5304;DHT22;2674;49.722;10.892;2023-09-08T13:56:28;29.30;99.90
5304;DHT22;2674;49.722;10.892;2023-09-08T13:58:54;29.40;99.90
5304;DHT22;2674;49.722;10.892;2023-09-08T14:01:20;29.30;99.90
5304;DHT22;2674;49.722;10.892;2023-09-08T14:03:46;29.30;99.90
5304;DHT22;2674;49.722;10.892;2023-09-08T14:06:12;29.30;99.90
5304;DHT22;2674;49.722;10.892;2023-09-08T14:08:37;29.30;99.90
5304;DHT22;2674;49.722;10.892;2023-09-08T14:11:03;29.20;99.90
5304;DHT22;2674;49.722;10.892;2023-09-08T14:13:29;29.20;99.90
5304;DHT22;2674;49.722;10.892;2023-09-08T14:15:55;29.20;99.90
5304;DHT22;2674;49.722;10.892;2023-09-08T14:18:20;29.10;99.90
5304;DHT22;2674;49.722;10.892;2023-09-08T14:20:46;29.20;99.90
5304;DHT22;2674;49.722;10.892;2023-09-08T14:23:12;29.20;99.90
5304;DHT22;2674;49.722;10.892;2023-09-08T14:25:38;29.10;99.90
5304;DHT22;2674;49.722;10.892;2023-09-08T14:28:04;29.00;99.90
5304;DHT22;2674;49.722;10.892;2023-09-08T14:30:30;29.20;99.90
5304;DHT22;2674;49.722;10.892;2023-09-08T14:32:56;29.30;99.90
5304;DHT22;2674;49.722;10.892;2023-09-08T14:35:22;29.40;99.90
5304;DHT22;2674;49.722;10.892;2023-09-08T14:37:49;29.30;99.90
5304;DHT22;2674;49.722;10.892;2023-09-08T14:40:15;29.40;99.90
5304;DHT22;2674;49.722;10.892;2023-09-08T14:42:41;29.20;99.90
5304;DHT22;2674;49.722;10.892;2023-09-08T14:45:07;29.30;99.90
5304;DHT22;2674;49.722;10.892;2023-09-08T14:47:34;29.20;99.90
5304;DHT22;2674;49.722;10.892;2023-09-08T14:50:00;29.30;99.90
5304;DHT22;2674;49.722;10.892;2023-09-08T14:52:26;29.40;99.90
5304;DHT22;2674;49.722;10.892;2023-09-08T14:54:52;29.50;99.90
5304;DHT22;2674;49.722;10.892;2023-09-08T14:57:18;29.50;99.90
5304;DHT22;2674;49.722;10.892;2023-09-08T14:59:44;29.40;99.90
5304;DHT22;2674;49.722;10.892;2023-09-08T15:02:10;29.40;99.90
5304;DHT22;2674;49.722;10.892;2023-09-08T15:04:36;29.30;99.90
5304;DHT22;2674;49.722;10.892;2023-09-08T15:07:03;29.30;99.90
5304;DHT22;2674;49.722;10.892;2023-09-08T15:09:29;29.30;99.90
5304;DHT22;2674;49.722;10.892;2023-09-08T15:11:55;29.40;99.90
5304;DHT22;2674;49.722;10.892;2023-09-08T15:14:20;29.30;99.90
5304;DHT22;2674;49.722;10.892;2023-09-08T15:16:46;29.30;99.90
5304;DHT22;2674;49.722;10.892;2023-09-08T15:19:12;29.20;99.90
5304;DHT22;2674;49.722;10.892;2023-09-08T15:21:38;29.20;99.90
5304;DHT22;2674;49.722;10.892;2023-09-08T15:24:04;29.20;99.90
5304;DHT22;2674;49.722;10.892;2023-09-08T15:26:30;29.20;99.90
5304;DHT22;2674;49.722;10.892;2023-09-08T15:28:56;29.20;99.90
5304;DHT22;2674;49.722;10.892;2023-09-08T15:31:22;29.20;99.90
5304;DHT22;2674;49.722;10.892;2023-09-08T15:33:48;29.20;99.90
5304;DHT22;2674;49.722;10.892;2023-09-08T15:36:14;29.10;99.90
5304;DHT22;2674;49.722;10.892;2023-09-08T15:38:40;29.10;99.90
5304;DHT22;2674;49.722;10.892;2023-09-08T15:43:33;29.10;99.90
5304;DHT22;2674;49.722;10.892;2023-09-08T15:45:59;29.10;99.90
5304;DHT22;2674;49.722;10.892;2023-09-08T15:48:25;29.20;99.90
5304;DHT22;2674;49.722;10.892;2023-09-08T15:50:51;29.10;99.90
5304;DHT22;2674;49.722;10.892;2023-09-08T15:53:17;29.30;99.90
5304;DHT22;2674;49.722;10.892;2023-09-08T15:55:42;29.30;99.90
5304;DHT22;2674;49.722;10.892;2023-09-08T15:58:08;29.10;99.90
5304;DHT22;2674;49.722;10.892;2023-09-08T16:00:34;29.00;99.90